sensor_id;sensor_type;location;lat;lon;timestamp;pressure;altitude;pressure_sealevel;temperature;humidity
36726;BME280;44936;52.086;5.150;2023-09-18T00:01:03;101486.13;;;21.99;100.00
36726;BME280;44936;52.086;5.150;2023-09-18T00:03:30;101453.38;;;21.68;100.00
36726;BME280;44936;52.086;5.150;2023-09-18T00:05:56;101471.28;;;21.91;100.00
36726;BME280;44936;52.086;5.150;2023-09-18T00:08:22;101461.03;;;21.78;100.00
36726;BME280;44936;52.086;5.150;2023-09-18T00:10:49;101442.75;;;21.93;100.00
36726;BME280;44936;52.086;5.150;2023-09-18T00:13:15;101431.50;;;21.83;100.00
36726;BME280;44936;52.086;5.150;2023-09-18T00:15:41;101428.06;;;21.80;100.00
36726;BME280;44936;52.086;5.150;2023-09-18T00:18:08;101377.16;;;21.33;100.00
36726;BME280;44936;52.086;5.150;2023-09-18T00:20:33;101381.97;;;21.48;100.00
36726;BME280;44936;52.086;5.150;2023-09-18T00:22:58;101385.16;;;21.59;100.00
36726;BME280;44936;52.086;5.150;2023-09-18T00:25:26;101390.38;;;21.62;100.00
36726;BME280;44936;52.086;5.150;2023-09-18T00:27:51;101388.84;;;21.55;100.00
36726;BME280;44936;52.086;5.150;2023-09-18T00:30:17;101376.91;;;21.40;100.00
36726;BME280;44936;52.086;5.150;2023-09-18T00:32:42;101372.25;;;21.45;100.00
36726;BME280;44936;52.086;5.150;2023-09-18T00:35:08;101363.69;;;21.62;100.00
36726;BME280;44936;52.086;5.150;2023-09-18T00:37:37;101363.69;;;21.36;100.00
36726;BME280;44936;52.086;5.150;2023-09-18T00:40:05;101358.31;;;21.37;100.00
36726;BME280;44936;52.086;5.150;2023-09-18T00:42:32;101364.31;;;21.44;100.00
36726;BME280;44936;52.086;5.150;2023-09-18T00:44:58;101352.41;;;21.28;100.00
36726;BME280;44936;52.086;5.150;2023-09-18T00:47:24;101336.66;;;21.18;100.00
36726;BME280;44936;52.086;5.150;2023-09-18T00:49:49;101322.13;;;21.29;100.00
36726;BME280;44936;52.086;5.150;2023-09-18T00:52:17;101286.72;;;21.24;100.00
36726;BME280;44936;52.086;5.150;2023-09-18T00:54:43;101302.38;;;21.34;100.00
36726;BME280;44936;52.086;5.150;2023-09-18T00:57:09;101268.22;;;21.17;100.00
36726;BME280;44936;52.086;5.150;2023-09-18T00:59:36;101301.25;;;21.41;100.00
36726;BME280;44936;52.086;5.150;2023-09-18T01:02:02;101270.75;;;21.22;100.00
36726;BME280;44936;52.086;5.150;2023-09-18T01:04:28;101266.81;;;21.34;100.00
36726;BME280;44936;52.086;5.150;2023-09-18T01:06:55;101259.09;;;21.25;100.00
36726;BME280;44936;52.086;5.150;2023-09-18T01:09:22;101247.47;;;21.27;100.00
36726;BME280;44936;52.086;5.150;2023-09-18T01:14:42;101255.69;;;21.21;100.00
36726;BME280;44936;52.086;5.150;2023-09-18T01:17:10;101207.41;;;20.76;100.00
36726;BME280;44936;52.086;5.150;2023-09-18T01:19:47;101228.75;;;21.02;100.00
36726;BME280;44936;52.086;5.150;2023-09-18T01:22:17;101193.50;;;20.94;100.00
36726;BME280;44936;52.086;5.150;2023-09-18T01:24:44;101160.50;;;20.97;100.00
36726;BME280;44936;52.086;5.150;2023-09-18T01:27:12;101162.91;;;21.04;100.00
36726;BME280;44936;52.086;5.150;2023-09-18T01:29:47;101141.91;;;20.95;100.00
36726;BME280;44936;52.086;5.150;2023-09-18T01:32:34;101123.81;;;20.78;100.00
36726;BME280;44936;52.086;5.150;2023-09-18T01:35:02;101191.00;;;21.14;100.00
36726;BME280;44936;52.086;5.150;2023-09-18T01:37:32;101193.81;;;21.10;100.00
36726;BME280;44936;52.086;5.150;2023-09-18T01:40:02;101200.78;;;21.14;100.00
36726;BME280;44936;52.086;5.150;2023-09-18T01:42:32;101202.03;;;21.30;100.00
36726;BME280;44936;52.086;5.150;2023-09-18T01:44:57;101216.00;;;21.37;100.00
36726;BME280;44936;52.086;5.150;2023-09-18T01:47:38;101225.88;;;21.35;100.00
36726;BME280;44936;52.086;5.150;2023-09-18T01:50:04;101223.97;;;21.38;100.00
36726;BME280;44936;52.086;5.150;2023-09-18T01:52:33;101212.88;;;21.24;100.00
36726;BME280;44936;52.086;5.150;2023-09-18T01:55:00;101213.81;;;21.23;100.00
36726;BME280;44936;52.086;5.150;2023-09-18T01:57:26;101235.78;;;21.31;100.00
36726;BME280;44936;52.086;5.150;2023-09-18T01:59:51;101239.94;;;21.40;100.00
36726;BME280;44936;52.086;5.150;2023-09-18T02:02:17;101209.25;;;21.27;100.00
36726;BME280;44936;52.086;5.150;2023-09-18T02:04:42;101182.28;;;21.09;100.00
36726;BME280;44936;52.086;5.150;2023-09-18T02:07:09;101235.47;;;21.40;100.00
36726;BME280;44936;52.086;5.150;2023-09-18T02:09:35;101249.88;;;21.35;100.00
36726;BME280;44936;52.086;5.150;2023-09-18T02:12:00;101227.09;;;21.25;100.00
36726;BME280;44936;52.086;5.150;2023-09-18T02:14:26;101204.41;;;21.11;100.00
36726;BME280;44936;52.086;5.150;2023-09-18T02:16:53;101219.56;;;21.11;100.00
36726;BME280;44936;52.086;5.150;2023-09-18T02:19:19;101208.06;;;21.09;100.00
36726;BME280;44936;52.086;5.150;2023-09-18T02:21:45;101243.63;;;21.36;100.00
36726;BME280;44936;52.086;5.150;2023-09-18T02:24:11;101248.88;;;21.39;100.00
36726;BME280;44936;52.086;5.150;2023-09-18T02:26:36;101204.94;;;21.23;100.00
36726;BME280;44936;52.086;5.150;2023-09-18T02:29:09;101238.28;;;21.36;100.00
36726;BME280;44936;52.086;5.150;2023-09-18T02:31:40;101228.88;;;21.51;100.00
36726;BME280;44936;52.086;5.150;2023-09-18T02:34:06;101227.41;;;21.42;100.00
36726;BME280;44936;52.086;5.150;2023-09-18T02:36:34;101180.13;;;21.20;100.00
36726;BME280;44936;52.086;5.150;2023-09-18T02:38:59;101230.78;;;21.47;100.00
36726;BME280;44936;52.086;5.150;2023-09-18T02:41:25;101230.66;;;21.50;100.00
36726;BME280;44936;52.086;5.150;2023-09-18T02:43:50;101241.28;;;21.52;100.00
36726;BME280;44936;52.086;5.150;2023-09-18T02:46:16;101195.50;;;21.39;100.00
36726;BME280;44936;52.086;5.150;2023-09-18T02:48:41;101200.72;;;21.42;100.00
36726;BME280;44936;52.086;5.150;2023-09-18T02:51:08;101208.31;;;21.53;100.00
36726;BME280;44936;52.086;5.150;2023-09-18T02:53:33;101190.09;;;21.40;100.00
36726;BME280;44936;52.086;5.150;2023-09-18T02:56:01;101174.78;;;21.45;100.00
36726;BME280;44936;52.086;5.150;2023-09-18T02:58:27;101145.47;;;21.44;100.00
36726;BME280;44936;52.086;5.150;2023-09-18T03:00:55;101135.00;;;21.39;100.00
36726;BME280;44936;52.086;5.150;2023-09-18T03:03:20;101140.09;;;21.45;100.00
36726;BME280;44936;52.086;5.150;2023-09-18T03:05:46;101151.00;;;21.63;100.00
36726;BME280;44936;52.086;5.150;2023-09-18T03:08:13;101121.91;;;21.55;100.00
36726;BME280;44936;52.086;5.150;2023-09-18T03:10:40;101145.44;;;21.69;100.00
36726;BME280;44936;52.086;5.150;2023-09-18T03:13:06;101134.09;;;21.62;100.00
36726;BME280;44936;52.086;5.150;2023-09-18T03:15:52;101136.09;;;21.57;100.00
36726;BME280;44936;52.086;5.150;2023-09-18T03:18:17;101101.78;;;21.46;100.00
36726;BME280;44936;52.086;5.150;2023-09-18T03:20:43;101094.84;;;21.42;100.00
36726;BME280;44936;52.086;5.150;2023-09-18T03:23:08;101124.44;;;21.60;100.00
36726;BME280;44936;52.086;5.150;2023-09-18T03:25:35;101098.84;;;21.54;100.00
36726;BME280;44936;52.086;5.150;2023-09-18T03:28:01;101114.19;;;21.71;100.00
36726;BME280;44936;52.086;5.150;2023-09-18T03:30:26;101114.75;;;21.57;100.00
36726;BME280;44936;52.086;5.150;2023-09-18T03:32:52;101135.69;;;21.68;100.00
36726;BME280;44936;52.086;5.150;2023-09-18T03:35:18;101139.38;;;21.64;100.00
36726;BME280;44936;52.086;5.150;2023-09-18T03:37:49;101132.50;;;21.58;100.00
36726;BME280;44936;52.086;5.150;2023-09-18T03:40:16;101150.47;;;21.53;100.00
36726;BME280;44936;52.086;5.150;2023-09-18T03:42:42;101138.41;;;21.43;100.00
36726;BME280;44936;52.086;5.150;2023-09-18T03:45:08;101121.75;;;21.36;100.00
36726;BME280;44936;52.086;5.150;2023-09-18T03:47:38;101134.81;;;21.44;100.00
36726;BME280;44936;52.086;5.150;2023-09-18T03:50:05;101146.69;;;21.35;100.00
36726;BME280;44936;52.086;5.150;2023-09-18T03:52:31;101131.91;;;21.25;100.00
36726;BME280;44936;52.086;5.150;2023-09-18T03:54:56;101129.81;;;21.35;100.00
36726;BME280;44936;52.086;5.150;2023-09-18T03:57:21;101112.59;;;21.18;100.00
36726;BME280;44936;52.086;5.150;2023-09-18T03:59:47;101092.19;;;21.17;100.00
36726;BME280;44936;52.086;5.150;2023-09-18T04:02:12;101099.88;;;21.27;100.00
36726;BME280;44936;52.086;5.150;2023-09-18T04:04:38;101074.38;;;21.18;100.00
36726;BME280;44936;52.086;5.150;2023-09-18T04:07:06;101048.81;;;21.12;100.00
36726;BME280;44936;52.086;5.150;2023-09-18T04:09:32;100968.59;;;20.95;100.00
36726;BME280;44936;52.086;5.150;2023-09-18T04:12:17;100939.81;;;21.27;100.00
36726;BME280;44936;52.086;5.150;2023-09-18T04:14:43;100955.50;;;21.34;100.00
36726;BME280;44936;52.086;5.150;2023-09-18T04:17:08;100932.34;;;21.13;100.00
36726;BME280;44936;52.086;5.150;2023-09-18T04:19:33;100897.03;;;21.06;100.00
36726;BME280;44936;52.086;5.150;2023-09-18T04:21:59;100910.34;;;21.30;100.00
36726;BME280;44936;52.086;5.150;2023-09-18T04:24:27;100971.78;;;21.50;100.00
36726;BME280;44936;52.086;5.150;2023-09-18T04:26:52;100956.38;;;21.11;100.00
36726;BME280;44936;52.086;5.150;2023-09-18T04:29:19;101027.13;;;21.21;100.00
36726;BME280;44936;52.086;5.150;2023-09-18T04:31:45;101054.47;;;21.52;100.00
36726;BME280;44936;52.086;5.150;2023-09-18T04:34:10;101023.06;;;21.11;100.00
36726;BME280;44936;52.086;5.150;2023-09-18T04:36:36;101019.50;;;21.11;100.00
36726;BME280;44936;52.086;5.150;2023-09-18T04:39:03;101005.97;;;21.40;100.00
36726;BME280;44936;52.086;5.150;2023-09-18T04:41:30;101000.91;;;21.56;100.00
36726;BME280;44936;52.086;5.150;2023-09-18T04:43:55;100964.22;;;21.39;100.00
36726;BME280;44936;52.086;5.150;2023-09-18T04:46:22;100987.56;;;21.56;100.00
36726;BME280;44936;52.086;5.150;2023-09-18T04:48:49;100992.63;;;21.40;100.00
36726;BME280;44936;52.086;5.150;2023-09-18T04:51:14;100964.25;;;21.38;100.00
36726;BME280;44936;52.086;5.150;2023-09-18T04:53:39;100952.19;;;21.51;100.00
36726;BME280;44936;52.086;5.150;2023-09-18T04:56:06;100961.19;;;21.48;100.00
36726;BME280;44936;52.086;5.150;2023-09-18T04:58:31;100976.19;;;21.73;100.00
36726;BME280;44936;52.086;5.150;2023-09-18T05:00:59;101010.47;;;21.84;100.00
36726;BME280;44936;52.086;5.150;2023-09-18T05:03:24;101027.97;;;21.69;100.00
36726;BME280;44936;52.086;5.150;2023-09-18T05:05:52;101031.88;;;21.60;100.00
36726;BME280;44936;52.086;5.150;2023-09-18T05:08:17;101001.38;;;21.44;100.00
36726;BME280;44936;52.086;5.150;2023-09-18T05:10:43;101015.06;;;21.58;100.00
36726;BME280;44936;52.086;5.150;2023-09-18T05:13:08;101007.59;;;21.44;100.00
36726;BME280;44936;52.086;5.150;2023-09-18T05:15:34;101043.47;;;21.59;100.00
36726;BME280;44936;52.086;5.150;2023-09-18T05:18:00;101039.94;;;21.59;100.00
36726;BME280;44936;52.086;5.150;2023-09-18T05:20:30;101050.31;;;21.66;100.00
36726;BME280;44936;52.086;5.150;2023-09-18T05:22:57;101054.44;;;21.75;100.00
36726;BME280;44936;52.086;5.150;2023-09-18T05:25:23;101046.09;;;21.61;100.00
36726;BME280;44936;52.086;5.150;2023-09-18T05:27:56;101045.44;;;21.54;100.00
36726;BME280;44936;52.086;5.150;2023-09-18T05:30:28;101024.22;;;21.51;100.00
36726;BME280;44936;52.086;5.150;2023-09-18T05:32:58;101020.13;;;21.42;100.00
36726;BME280;44936;52.086;5.150;2023-09-18T05:35:30;101041.63;;;21.61;100.00
36726;BME280;44936;52.086;5.150;2023-09-18T05:37:55;101035.97;;;21.47;100.00
36726;BME280;44936;52.086;5.150;2023-09-18T05:40:22;101050.22;;;21.46;100.00
36726;BME280;44936;52.086;5.150;2023-09-18T05:42:47;101063.09;;;21.58;100.00
36726;BME280;44936;52.086;5.150;2023-09-18T05:45:13;101069.97;;;21.64;100.00
36726;BME280;44936;52.086;5.150;2023-09-18T05:47:40;101063.84;;;21.62;100.00
36726;BME280;44936;52.086;5.150;2023-09-18T05:50:10;101024.66;;;21.40;100.00
36726;BME280;44936;52.086;5.150;2023-09-18T05:52:40;101015.72;;;21.41;100.00
36726;BME280;44936;52.086;5.150;2023-09-18T05:55:06;100996.41;;;21.35;100.00
36726;BME280;44936;52.086;5.150;2023-09-18T05:57:32;101015.50;;;22.33;100.00
36726;BME280;44936;52.086;5.150;2023-09-18T05:59:57;101047.06;;;22.46;100.00
36726;BME280;44936;52.086;5.150;2023-09-18T06:02:23;101103.22;;;22.66;100.00
36726;BME280;44936;52.086;5.150;2023-09-18T06:04:54;101091.69;;;22.44;100.00
36726;BME280;44936;52.086;5.150;2023-09-18T06:07:22;101131.31;;;22.12;100.00
36726;BME280;44936;52.086;5.150;2023-09-18T06:10:07;101121.84;;;21.80;100.00
36726;BME280;44936;52.086;5.150;2023-09-18T06:12:33;101062.84;;;21.64;100.00
36726;BME280;44936;52.086;5.150;2023-09-18T06:14:58;101031.88;;;21.60;100.00
36726;BME280;44936;52.086;5.150;2023-09-18T06:17:24;101058.13;;;21.71;100.00
36726;BME280;44936;52.086;5.150;2023-09-18T06:19:49;101058.13;;;21.71;100.00
36726;BME280;44936;52.086;5.150;2023-09-18T06:22:15;101038.81;;;21.64;100.00
36726;BME280;44936;52.086;5.150;2023-09-18T06:24:40;101043.13;;;21.68;100.00
36726;BME280;44936;52.086;5.150;2023-09-18T06:27:06;101040.06;;;21.56;100.00
36726;BME280;44936;52.086;5.150;2023-09-18T06:29:35;100995.94;;;21.47;100.00
36726;BME280;44936;52.086;5.150;2023-09-18T06:32:00;101015.34;;;21.72;100.00
36726;BME280;44936;52.086;5.150;2023-09-18T06:34:26;101027.09;;;21.68;100.00
36726;BME280;44936;52.086;5.150;2023-09-18T06:36:53;101034.81;;;21.76;100.00
36726;BME280;44936;52.086;5.150;2023-09-18T06:39:19;101017.38;;;21.44;100.00
36726;BME280;44936;52.086;5.150;2023-09-18T06:41:45;101008.28;;;21.49;100.00
36726;BME280;44936;52.086;5.150;2023-09-18T06:44:14;101013.75;;;21.68;100.00
36726;BME280;44936;52.086;5.150;2023-09-18T06:46:40;100964.16;;;21.41;100.00
36726;BME280;44936;52.086;5.150;2023-09-18T06:49:06;101030.56;;;21.70;100.00
36726;BME280;44936;52.086;5.150;2023-09-18T06:51:31;101034.25;;;21.68;100.00
36726;BME280;44936;52.086;5.150;2023-09-18T06:53:57;101030.13;;;21.59;100.00
36726;BME280;44936;52.086;5.150;2023-09-18T06:56:25;101050.31;;;21.66;100.00
36726;BME280;44936;52.086;5.150;2023-09-18T06:58:51;101022.13;;;21.59;100.00
36726;BME280;44936;52.086;5.150;2023-09-18T07:01:19;101037.91;;;21.65;100.00
36726;BME280;44936;52.086;5.150;2023-09-18T07:03:48;101025.78;;;21.78;100.00
36726;BME280;44936;52.086;5.150;2023-09-18T07:06:15;101035.69;;;21.76;100.00
36726;BME280;44936;52.086;5.150;2023-09-18T07:08:47;101077.59;;;21.96;100.00
36726;BME280;44936;52.086;5.150;2023-09-18T07:11:16;101048.78;;;21.83;100.00
36726;BME280;44936;52.086;5.150;2023-09-18T07:13:42;101060.19;;;21.86;100.00
36726;BME280;44936;52.086;5.150;2023-09-18T07:16:09;101072.69;;;21.86;100.00
36726;BME280;44936;52.086;5.150;2023-09-18T07:18:35;101056.41;;;21.70;100.00
36726;BME280;44936;52.086;5.150;2023-09-18T07:21:00;101056.78;;;21.83;100.00
36726;BME280;44936;52.086;5.150;2023-09-18T07:23:26;101040.88;;;21.80;100.00
36726;BME280;44936;52.086;5.150;2023-09-18T07:25:51;101082.13;;;22.16;100.00
36726;BME280;44936;52.086;5.150;2023-09-18T07:28:17;101049.16;;;21.95;100.00
36726;BME280;44936;52.086;5.150;2023-09-18T07:30:43;101083.38;;;22.08;100.00
36726;BME280;44936;52.086;5.150;2023-09-18T07:33:10;101092.50;;;22.24;100.00
36726;BME280;44936;52.086;5.150;2023-09-18T07:35:35;101095.84;;;22.09;100.00
36726;BME280;44936;52.086;5.150;2023-09-18T07:38:01;101036.47;;;21.78;100.00
36726;BME280;44936;52.086;5.150;2023-09-18T07:40:26;101041.88;;;21.77;100.00
36726;BME280;44936;52.086;5.150;2023-09-18T07:42:52;101051.88;;;21.94;100.00
36726;BME280;44936;52.086;5.150;2023-09-18T07:45:19;101092.81;;;22.16;100.00
36726;BME280;44936;52.086;5.150;2023-09-18T07:47:44;101073.47;;;22.11;100.00
36726;BME280;44936;52.086;5.150;2023-09-18T07:50:10;101099.19;;;22.14;100.00
36726;BME280;44936;52.086;5.150;2023-09-18T07:52:35;101095.28;;;21.99;100.00
36726;BME280;44936;52.086;5.150;2023-09-18T07:55:01;101068.06;;;21.89;100.00
36726;BME280;44936;52.086;5.150;2023-09-18T07:57:27;101113.69;;;22.06;100.00
36726;BME280;44936;52.086;5.150;2023-09-18T07:59:57;101107.84;;;21.97;100.00
36726;BME280;44936;52.086;5.150;2023-09-18T08:02:24;101125.28;;;22.05;100.00
36726;BME280;44936;52.086;5.150;2023-09-18T08:04:50;101112.88;;;22.04;100.00
36726;BME280;44936;52.086;5.150;2023-09-18T08:07:18;101096.72;;;21.86;100.00
36726;BME280;44936;52.086;5.150;2023-09-18T08:09:44;101101.91;;;22.12;100.00
36726;BME280;44936;52.086;5.150;2023-09-18T08:12:09;101109.47;;;22.01;100.00
36726;BME280;44936;52.086;5.150;2023-09-18T08:14:35;101130.69;;;22.27;100.00
36726;BME280;44936;52.086;5.150;2023-09-18T08:17:01;101134.09;;;22.09;100.00
36726;BME280;44936;52.086;5.150;2023-09-18T08:19:28;101152.69;;;22.12;100.00
36726;BME280;44936;52.086;5.150;2023-09-18T08:21:54;101136.69;;;22.32;100.00
36726;BME280;44936;52.086;5.150;2023-09-18T08:24:20;101141.41;;;22.48;100.00
36726;BME280;44936;52.086;5.150;2023-09-18T08:26:46;101120.53;;;21.92;100.00
36726;BME280;44936;52.086;5.150;2023-09-18T08:29:11;101105.53;;;21.88;100.00
36726;BME280;44936;52.086;5.150;2023-09-18T08:31:37;101117.16;;;22.10;100.00
36726;BME280;44936;52.086;5.150;2023-09-18T08:34:02;101121.19;;;21.97;100.00
36726;BME280;44936;52.086;5.150;2023-09-18T08:36:27;101110.88;;;21.64;100.00
36726;BME280;44936;52.086;5.150;2023-09-18T08:38:55;101097.66;;;21.85;100.00
36726;BME280;44936;52.086;5.150;2023-09-18T08:41:23;101120.53;;;22.14;100.00
36726;BME280;44936;52.086;5.150;2023-09-18T08:43:56;101130.84;;;22.01;100.00
36726;BME280;44936;52.086;5.150;2023-09-18T08:46:22;101120.19;;;21.77;100.00
36726;BME280;44936;52.086;5.150;2023-09-18T08:48:48;101109.84;;;21.92;100.00
36726;BME280;44936;52.086;5.150;2023-09-18T08:51:15;101152.47;;;22.17;100.00
36726;BME280;44936;52.086;5.150;2023-09-18T08:53:41;101137.34;;;21.94;100.00
36726;BME280;44936;52.086;5.150;2023-09-18T08:56:08;101139.00;;;21.96;100.00
36726;BME280;44936;52.086;5.150;2023-09-18T08:58:37;101173.94;;;21.92;100.00
36726;BME280;44936;52.086;5.150;2023-09-18T09:01:05;101171.78;;;22.01;100.00
36726;BME280;44936;52.086;5.150;2023-09-18T09:03:35;101175.19;;;22.05;100.00
36726;BME280;44936;52.086;5.150;2023-09-18T09:06:01;101141.66;;;21.74;100.00
36726;BME280;44936;52.086;5.150;2023-09-18T09:08:30;101181.25;;;22.10;100.00
36726;BME280;44936;52.086;5.150;2023-09-18T09:10:56;101204.38;;;22.33;100.00
36726;BME280;44936;52.086;5.150;2023-09-18T09:13:25;101168.94;;;21.83;100.00
36726;BME280;44936;52.086;5.150;2023-09-18T09:15:56;101205.06;;;22.38;100.00
36726;BME280;44936;52.086;5.150;2023-09-18T09:18:23;101184.56;;;22.39;100.00
36726;BME280;44936;52.086;5.150;2023-09-18T09:23:19;101202.13;;;22.66;100.00
36726;BME280;44936;52.086;5.150;2023-09-18T09:25:44;101262.16;;;23.03;100.00
36726;BME280;44936;52.086;5.150;2023-09-18T09:28:09;101276.50;;;22.56;100.00
36726;BME280;44936;52.086;5.150;2023-09-18T09:30:36;101270.94;;;22.84;100.00
36726;BME280;44936;52.086;5.150;2023-09-18T09:33:04;101281.34;;;22.69;100.00
36726;BME280;44936;52.086;5.150;2023-09-18T09:35:36;101278.75;;;22.67;100.00
36726;BME280;44936;52.086;5.150;2023-09-18T09:38:12;101284.94;;;22.91;100.00
36726;BME280;44936;52.086;5.150;2023-09-18T09:40:41;101278.91;;;22.86;100.00
36726;BME280;44936;52.086;5.150;2023-09-18T09:43:09;101257.78;;;22.78;100.00
36726;BME280;44936;52.086;5.150;2023-09-18T09:45:35;101276.38;;;22.81;100.00
36726;BME280;44936;52.086;5.150;2023-09-18T09:48:03;101266.53;;;22.60;100.00
36726;BME280;44936;52.086;5.150;2023-09-18T09:50:29;101290.28;;;22.91;100.00
36726;BME280;44936;52.086;5.150;2023-09-18T09:52:55;101304.78;;;23.07;100.00
36726;BME280;44936;52.086;5.150;2023-09-18T09:58:05;101310.69;;;22.70;100.00
36726;BME280;44936;52.086;5.150;2023-09-18T10:03:12;101321.63;;;22.87;100.00
36726;BME280;44936;52.086;5.150;2023-09-18T10:05:40;101308.28;;;22.64;100.00
36726;BME280;44936;52.086;5.150;2023-09-18T10:08:11;101275.13;;;22.68;100.00
36726;BME280;44936;52.086;5.150;2023-09-18T10:10:46;101267.00;;;22.71;100.00
36726;BME280;44936;52.086;5.150;2023-09-18T10:13:17;101267.91;;;22.48;100.00
36726;BME280;44936;52.086;5.150;2023-09-18T10:15:45;101255.06;;;22.80;100.00
36726;BME280;44936;52.086;5.150;2023-09-18T10:18:25;101265.06;;;22.75;100.00
36726;BME280;44936;52.086;5.150;2023-09-18T10:20:56;101280.06;;;23.01;100.00
36726;BME280;44936;52.086;5.150;2023-09-18T10:23:34;101282.59;;;23.26;100.00
36726;BME280;44936;52.086;5.150;2023-09-18T10:26:04;101255.38;;;22.94;100.00
36726;BME280;44936;52.086;5.150;2023-09-18T10:28:31;101297.09;;;23.20;100.00
36726;BME280;44936;52.086;5.150;2023-09-18T10:30:58;101328.31;;;23.41;100.00
36726;BME280;44936;52.086;5.150;2023-09-18T10:33:25;101324.00;;;23.37;100.00
36726;BME280;44936;52.086;5.150;2023-09-18T10:35:53;101334.88;;;23.55;100.00
36726;BME280;44936;52.086;5.150;2023-09-18T10:38:19;101363.41;;;23.76;100.00
36726;BME280;44936;52.086;5.150;2023-09-18T10:40:46;101341.88;;;23.37;100.00
36726;BME280;44936;52.086;5.150;2023-09-18T10:43:15;101307.53;;;23.06;100.00
36726;BME280;44936;52.086;5.150;2023-09-18T10:45:42;101344.28;;;23.01;100.00
36726;BME280;44936;52.086;5.150;2023-09-18T10:48:09;101339.97;;;23.18;100.00
36726;BME280;44936;52.086;5.150;2023-09-18T10:50:35;101338.03;;;23.22;100.00
36726;BME280;44936;52.086;5.150;2023-09-18T10:53:02;101278.13;;;22.82;100.00
36726;BME280;44936;52.086;5.150;2023-09-18T10:55:27;101281.56;;;22.64;100.00
36726;BME280;44936;52.086;5.150;2023-09-18T10:57:55;101309.41;;;22.80;100.00
36726;BME280;44936;52.086;5.150;2023-09-18T11:00:31;101276.38;;;22.81;100.00
36726;BME280;44936;52.086;5.150;2023-09-18T11:03:14;101294.78;;;22.91;100.00
36726;BME280;44936;52.086;5.150;2023-09-18T11:05:44;101297.97;;;23.21;100.00
36726;BME280;44936;52.086;5.150;2023-09-18T11:08:34;101309.16;;;23.30;100.00
36726;BME280;44936;52.086;5.150;2023-09-18T11:11:06;101307.00;;;23.59;100.00
36726;BME280;44936;52.086;5.150;2023-09-18T11:13:40;101301.25;;;23.48;100.00
36726;BME280;44936;52.086;5.150;2023-09-18T11:19:13;101306.91;;;23.41;100.00
36726;BME280;44936;52.086;5.150;2023-09-18T11:21:41;101296.28;;;23.59;100.00
36726;BME280;44936;52.086;5.150;2023-09-18T11:24:15;101313.44;;;23.77;100.00
36726;BME280;44936;52.086;5.150;2023-09-18T11:26:43;101301.03;;;23.94;100.00
36726;BME280;44936;52.086;5.150;2023-09-18T11:29:14;101307.69;;;24.05;100.00
36726;BME280;44936;52.086;5.150;2023-09-18T11:34:12;101302.84;;;24.13;100.00
36726;BME280;44936;52.086;5.150;2023-09-18T11:36:37;101290.88;;;24.20;100.00
36726;BME280;44936;52.086;5.150;2023-09-18T11:39:03;101284.78;;;23.97;100.00
36726;BME280;44936;52.086;5.150;2023-09-18T11:41:30;101298.28;;;24.15;100.00
36726;BME280;44936;52.086;5.150;2023-09-18T11:46:48;101313.06;;;24.23;100.00
36726;BME280;44936;52.086;5.150;2023-09-18T11:49:21;101306.84;;;24.23;100.00
36726;BME280;44936;52.086;5.150;2023-09-18T11:51:54;101304.28;;;24.20;100.00
36726;BME280;44936;52.086;5.150;2023-09-18T11:54:19;101289.66;;;24.08;100.00
36726;BME280;44936;52.086;5.150;2023-09-18T11:56:46;101301.25;;;24.09;100.00
36726;BME280;44936;52.086;5.150;2023-09-18T11:59:12;101240.34;;;23.73;100.00
36726;BME280;44936;52.086;5.150;2023-09-18T12:01:38;101290.13;;;24.55;100.00
36726;BME280;44936;52.086;5.150;2023-09-18T12:04:06;101289.78;;;24.44;100.00
36726;BME280;44936;52.086;5.150;2023-09-18T12:06:39;101269.78;;;24.33;100.00
36726;BME280;44936;52.086;5.150;2023-09-18T12:09:06;101276.13;;;24.30;100.00
36726;BME280;44936;52.086;5.150;2023-09-18T12:11:33;101263.72;;;24.09;100.00
36726;BME280;44936;52.086;5.150;2023-09-18T12:14:01;101281.53;;;24.28;100.00
36726;BME280;44936;52.086;5.150;2023-09-18T12:16:27;101261.72;;;24.14;100.00
36726;BME280;44936;52.086;5.150;2023-09-18T12:18:53;101270.13;;;24.44;100.00
36726;BME280;44936;52.086;5.150;2023-09-18T12:21:18;101252.84;;;24.12;100.00
36726;BME280;44936;52.086;5.150;2023-09-18T12:23:45;101252.38;;;24.41;100.00
36726;BME280;44936;52.086;5.150;2023-09-18T12:26:16;101252.22;;;24.44;100.00
36726;BME280;44936;52.086;5.150;2023-09-18T12:28:43;101251.41;;;24.23;100.00
36726;BME280;44936;52.086;5.150;2023-09-18T12:31:13;101250.75;;;24.18;100.00
36726;BME280;44936;52.086;5.150;2023-09-18T12:33:40;101253.53;;;24.36;100.00
36726;BME280;44936;52.086;5.150;2023-09-18T12:36:07;101252.09;;;24.47;100.00
36726;BME280;44936;52.086;5.150;2023-09-18T12:38:56;101252.94;;;24.67;100.00
36726;BME280;44936;52.086;5.150;2023-09-18T12:41:24;101225.13;;;24.50;100.00
36726;BME280;44936;52.086;5.150;2023-09-18T12:43:50;101224.78;;;24.75;100.00
36726;BME280;44936;52.086;5.150;2023-09-18T12:46:16;101230.94;;;24.77;100.00
36726;BME280;44936;52.086;5.150;2023-09-18T12:48:44;101214.53;;;24.83;100.00
36726;BME280;44936;52.086;5.150;2023-09-18T12:51:13;101219.03;;;24.66;100.00
36726;BME280;44936;52.086;5.150;2023-09-18T12:53:39;101212.06;;;24.62;100.00
36726;BME280;44936;52.086;5.150;2023-09-18T12:56:10;101181.38;;;24.31;100.00
36726;BME280;44936;52.086;5.150;2023-09-18T12:58:36;101200.34;;;24.45;100.00
36726;BME280;44936;52.086;5.150;2023-09-18T13:01:06;101193.38;;;24.77;100.00